Time;durP1;ratioP1;P1;durP2;ratioP2;P2;SDS_P1;SDS_P2;PMS_P1;PMS_P2;Temp;Humidity;BMP_temperature;BMP_pressure;BME280_temperature;BME280_humidity;BME280_pressure;Samples;Min_cycle;Max_cycle;Signal;HPM_P1;HPM_P2
2023/10/21 00:02:00;;;;;;;15.60;10.25;;;;;;;13.93;82.10;99556.72;5119493;27;20413;-64
2023/10/21 00:04:25;;;;;;;17.33;10.32;;;;;;;13.98;83.39;99555.16;5119154;27;20080;-64
2023/10/21 00:06:51;;;;;;;17.95;10.75;;;;;;;13.99;81.21;99554.13;5119778;27;20313;-64
2023/10/21 00:09:18;;;;;;;17.55;10.25;;;;;;;13.99;82.11;99559.44;5118757;27;20047;-64
2023/10/21 00:11:43;;;;;;;16.83;10.90;;;;;;;13.93;83.93;99562.03;5117890;27;20198;-64
2023/10/21 00:14:08;;;;;;;18.23;10.00;;;;;;;13.93;85.33;99567.38;5118226;27;20072;-63
2023/10/21 00:16:34;;;;;;;15.02;9.50;;;;;;;13.95;85.64;99573.34;5116676;27;20035;-64
2023/10/21 00:19:00;;;;;;;16.92;10.15;;;;;;;13.96;85.82;99559.84;5119136;27;20227;-64
2023/10/21 00:21:25;;;;;;;15.02;9.07;;;;;;;14.07;85.67;99561.19;5119184;27;20043;-64
2023/10/21 00:23:51;;;;;;;16.73;9.65;;;;;;;14.03;85.24;99554.56;5117608;27;20032;-64
2023/10/21 00:26:16;;;;;;;13.88;9.82;;;;;;;14.02;85.11;99548.44;5118537;27;20047;-64
2023/10/21 00:28:42;;;;;;;15.02;9.48;;;;;;;14.08;84.48;99552.16;5118633;28;20027;-64
2023/10/21 00:31:07;;;;;;;13.52;9.38;;;;;;;14.11;84.20;99553.63;5117610;27;20043;-64
2023/10/21 00:33:33;;;;;;;12.93;8.60;;;;;;;14.13;81.91;99559.59;5119257;27;20337;-64
2023/10/21 00:35:59;;;;;;;13.70;9.38;;;;;;;14.00;84.59;99569.09;5117838;27;20467;-64
2023/10/21 00:38:24;;;;;;;14.88;9.73;;;;;;;13.95;84.62;99574.16;5118477;27;20047;-64
2023/10/21 00:40:55;;;;;;;13.05;9.95;;;;;;;13.93;85.39;99570.84;5118826;28;20370;-64
2023/10/21 00:43:40;;;;;;;12.43;9.20;;;;;;;13.89;84.34;99552.78;5118104;27;20062;-65
2023/10/21 00:46:16;;;;;;;13.90;8.90;;;;;;;13.83;85.22;99559.69;5118781;27;20241;-64
2023/10/21 00:48:42;;;;;;;14.45;8.63;;;;;;;13.83;83.30;99566.84;5118091;28;20031;-64
2023/10/21 00:51:09;;;;;;;14.52;8.85;;;;;;;13.76;81.73;99566.78;5118956;27;20326;-64
2023/10/21 00:53:36;;;;;;;13.60;8.90;;;;;;;13.74;82.19;99574.13;5118058;28;20349;-64
2023/10/21 00:56:02;;;;;;;13.15;9.15;;;;;;;13.83;83.50;99573.00;5117190;28;20275;-64
2023/10/21 00:58:31;;;;;;;15.38;10.18;;;;;;;13.82;83.86;99568.69;5119644;28;20057;-64
2023/10/21 01:00:57;;;;;;;14.60;10.05;;;;;;;13.87;82.56;99568.13;5119088;28;20480;-64
2023/10/21 01:03:25;;;;;;;14.95;10.15;;;;;;;13.80;83.30;99570.72;5118935;28;20352;-64
2023/10/21 01:05:51;;;;;;;12.93;9.07;;;;;;;13.87;82.26;99576.94;5119468;28;20027;-64
2023/10/21 01:08:16;;;;;;;13.07;8.80;;;;;;;13.78;78.79;99577.22;5118614;28;20333;-64
2023/10/21 01:10:42;;;;;;;15.10;9.18;;;;;;;13.78;78.99;99577.22;5118368;28;20035;-64
2023/10/21 01:13:07;;;;;;;16.13;9.85;;;;;;;13.71;77.60;99569.16;5118742;28;20039;-64
2023/10/21 01:15:32;;;;;;;16.33;10.02;;;;;;;13.64;80.17;99568.25;5119043;28;20027;-64
2023/10/21 01:17:58;;;;;;;13.05;9.43;;;;;;;13.73;80.99;99559.97;5118409;28;20112;-64
2023/10/21 01:20:23;;;;;;;14.25;9.18;;;;;;;13.67;79.20;99559.91;5117466;28;20032;-64
2023/10/21 01:22:49;;;;;;;15.50;9.50;;;;;;;13.76;79.03;99563.28;5117979;28;20098;-64
2023/10/21 01:25:14;;;;;;;12.35;8.27;;;;;;;13.72;77.99;99568.97;5133202;27;20031;-64
2023/10/21 01:27:40;;;;;;;15.27;8.68;;;;;;;13.76;76.08;99573.94;5120884;27;20360;-64
2023/10/21 01:30:06;;;;;;;15.10;9.32;;;;;;;13.73;76.98;99572.47;5121689;27;20039;-64
2023/10/21 01:32:32;;;;;;;14.82;8.88;;;;;;;13.66;76.99;99564.41;5122959;27;20116;-64
2023/10/21 01:34:58;;;;;;;15.82;8.63;;;;;;;13.67;75.73;99571.38;5121889;27;20116;-64
2023/10/21 01:37:23;;;;;;;12.77;8.23;;;;;;;13.65;75.37;99569.91;5121968;27;20349;-64
2023/10/21 01:39:49;;;;;;;14.20;8.70;;;;;;;13.58;76.32;99571.66;5120702;27;20371;-64
2023/10/21 01:42:14;;;;;;;15.30;10.10;;;;;;;13.42;79.69;99570.81;5121494;27;20642;-64
2023/10/21 01:44:40;;;;;;;17.25;9.95;;;;;;;13.36;82.29;99573.38;5121305;27;20019;-64
2023/10/21 01:47:06;;;;;;;17.23;9.75;;;;;;;13.45;83.91;99571.47;5120824;27;20049;-64
2023/10/21 01:49:32;;;;;;;14.60;10.85;;;;;;;13.49;84.83;99575.41;5121086;27;20035;-64
2023/10/21 01:51:57;;;;;;;20.35;10.23;;;;;;;13.50;85.29;99575.22;5121406;27;20329;-65
2023/10/21 01:54:23;;;;;;;17.73;10.20;;;;;;;13.45;85.39;99582.09;5119469;27;20108;-64
2023/10/21 01:56:48;;;;;;;16.98;9.65;;;;;;;13.48;86.04;99587.88;5121274;27;20032;-64
2023/10/21 01:59:14;;;;;;;18.10;9.95;;;;;;;13.50;81.06;99583.19;5122269;27;20038;-64
2023/10/21 02:01:40;;;;;;;15.60;9.48;;;;;;;13.34;80.35;99594.03;5118069;27;20134;-64
2023/10/21 02:04:06;;;;;;;13.77;9.48;;;;;;;13.33;81.67;99590.53;5118113;27;20035;-65
2023/10/21 02:06:31;;;;;;;14.57;10.27;;;;;;;13.34;80.62;99605.50;5121637;27;20049;-63
2023/10/21 02:08:56;;;;;;;12.15;8.73;;;;;;;13.33;78.33;99597.69;5122557;27;20040;-64
2023/10/21 02:11:24;;;;;;;18.38;9.75;;;;;;;13.11;78.55;99602.88;5120774;27;20337;-64
2023/10/21 02:13:50;;;;;;;15.57;8.88;;;;;;;13.14;79.00;99595.53;5121730;27;20031;-64
2023/10/21 02:16:16;;;;;;;49.22;12.32;;;;;;;13.14;77.79;99611.50;5122673;27;20096;-64
2023/10/21 02:18:41;;;;;;;34.83;10.65;;;;;;;13.18;78.02;99610.97;5121241;27;20396;-64
2023/10/21 02:21:07;;;;;;;26.88;10.65;;;;;;;13.25;79.44;99608.41;5120448;27;20048;-64
2023/10/21 02:23:33;;;;;;;20.58;9.77;;;;;;;13.29;77.44;99607.88;5120259;27;20066;-64
2023/10/21 02:26:03;;;;;;;16.15;9.23;;;;;;;13.28;78.00;99608.06;5111664;27;20062;-64
2023/10/21 02:28:29;;;;;;;16.45;9.82;;;;;;;13.26;81.54;99608.25;5121331;27;20040;-64
2023/10/21 02:30:55;;;;;;;16.38;9.43;;;;;;;13.15;81.14;99623.78;5121635;27;20337;-64
2023/10/21 02:33:21;;;;;;;16.65;9.50;;;;;;;13.23;83.92;99629.03;5121143;27;20066;-64
2023/10/21 02:35:52;;;;;;;15.57;9.52;;;;;;;13.32;84.08;99625.28;5121465;27;20304;-64
2023/10/21 02:38:17;;;;;;;16.80;10.13;;;;;;;13.27;84.25;99625.84;5119440;27;20044;-64
2023/10/21 02:40:43;;;;;;;18.80;10.07;;;;;;;13.27;83.38;99627.66;5119972;27;20077;-63
2023/10/21 02:43:09;;;;;;;14.50;8.98;;;;;;;13.22;77.58;99633.53;5117797;27;20340;-65
2023/10/21 02:45:35;;;;;;;11.73;8.70;;;;;;;13.20;78.62;99632.06;5117500;27;20747;-64
2023/10/21 02:48:00;;;;;;;15.80;9.60;;;;;;;13.24;79.20;99628.88;5119551;27;20055;-64
2023/10/21 02:50:26;;;;;;;16.17;9.40;;;;;;;13.25;79.09;99635.84;5119787;27;20393;-64
2023/10/21 02:52:52;;;;;;;17.42;8.82;;;;;;;13.24;78.28;99628.88;5120452;27;20046;-64
2023/10/21 02:55:18;;;;;;;13.93;9.00;;;;;;;13.33;77.89;99629.59;5119395;27;20038;-64
2023/10/21 02:57:44;;;;;;;19.55;9.63;;;;;;;13.27;77.57;99627.66;5119858;27;20043;-64
2023/10/21 03:00:15;;;;;;;14.93;10.32;;;;;;;13.17;83.13;99645.72;5119491;27;20042;-64
2023/10/21 03:02:42;;;;;;;17.77;10.65;;;;;;;13.20;85.16;99642.69;5121056;27;20043;-64
2023/10/21 03:05:08;;;;;;;18.02;11.70;;;;;;;13.20;85.88;99646.19;5119571;27;20035;-64
2023/10/21 03:07:33;;;;;;;18.23;10.63;;;;;;;13.17;86.55;99654.53;5120616;27;20358;-64
2023/10/21 03:10:00;;;;;;;18.25;10.43;;;;;;;13.31;85.82;99653.72;5118947;27;20066;-64
2023/10/21 03:12:26;;;;;;;20.08;12.05;;;;;;;13.17;86.33;99649.22;5119981;27;20098;-64
2023/10/21 03:14:51;;;;;;;17.98;10.98;;;;;;;13.00;88.05;99656.47;5118930;27;20042;-64
2023/10/21 03:17:17;;;;;;;19.08;11.70;;;;;;;13.14;86.95;99657.50;5119026;27;20245;-65
2023/10/21 03:19:42;;;;;;;18.92;11.13;;;;;;;12.63;88.77;99657.28;5118865;27;20248;-65
2023/10/21 03:22:08;;;;;;;21.88;11.50;;;;;;;12.87;88.36;99668.72;5120024;27;20312;-65
2023/10/21 03:24:33;;;;;;;17.98;10.98;;;;;;;13.03;86.97;99653.47;5119917;27;20059;-65
2023/10/21 03:26:59;;;;;;;17.50;10.70;;;;;;;13.11;85.99;99664.00;5118697;27;20077;-65
2023/10/21 03:29:24;;;;;;;18.50;11.05;;;;;;;13.10;86.18;99665.03;5118465;27;20031;-65
2023/10/21 03:31:50;;;;;;;17.60;11.18;;;;;;;13.14;85.83;99667.31;5118545;27;20088;-65
2023/10/21 03:34:15;;;;;;;19.13;10.88;;;;;;;13.22;85.35;99676.06;5119702;27;20252;-65
2023/10/21 03:36:41;;;;;;;19.88;11.20;;;;;;;13.18;84.70;99665.97;5118649;27;20042;-65
2023/10/21 03:39:07;;;;;;;16.80;10.98;;;;;;;12.98;85.78;99661.16;5120175;27;20313;-65
2023/10/21 03:41:32;;;;;;;17.77;10.68;;;;;;;13.10;85.76;99673.00;5118081;27;20050;-65
2023/10/21 03:43:58;;;;;;;17.88;10.90;;;;;;;13.07;85.11;99667.22;5119801;27;20069;-64
2023/10/21 03:46:24;;;;;;;20.75;12.43;;;;;;;13.01;85.18;99667.94;5118421;27;20080;-66
2023/10/21 03:48:50;;;;;;;19.83;12.52;;;;;;;13.01;85.58;99676.72;5119082;27;20243;-65
2023/10/21 03:51:15;;;;;;;17.67;11.40;;;;;;;13.03;85.54;99674.72;5118984;27;20043;-65
2023/10/21 03:53:43;;;;;;;20.60;12.80;;;;;;;12.97;85.79;99678.09;5118546;27;20084;-65
2023/10/21 03:56:09;;;;;;;17.45;12.25;;;;;;;13.07;85.71;99670.69;5120036;27;20035;-66
2023/10/21 03:58:36;;;;;;;16.92;10.70;;;;;;;12.94;82.74;99672.31;5119670;27;20028;-65
2023/10/21 04:01:01;;;;;;;18.05;11.10;;;;;;;13.02;81.51;99664.28;5117398;27;20321;-65
2023/10/21 04:03:27;;;;;;;15.00;10.68;;;;;;;13.05;80.69;99655.94;5118937;27;20208;-64
2023/10/21 04:05:54;;;;;;;20.92;11.52;;;;;;;13.01;79.54;99658.13;5118995;27;20035;-65
2023/10/21 04:08:20;;;;;;;19.02;10.90;;;;;;;12.96;78.91;99649.88;5119596;27;20071;-66
2023/10/21 04:10:45;;;;;;;21.13;11.13;;;;;;;12.91;79.38;99641.59;5118956;27;20031;-65
2023/10/21 04:13:12;;;;;;;18.63;11.00;;;;;;;12.78;81.67;99652.84;5118897;27;20039;-65
2023/10/21 04:15:37;;;;;;;15.00;9.55;;;;;;;12.84;81.16;99646.00;5118968;27;20063;-64
2023/10/21 04:18:03;;;;;;;18.38;10.65;;;;;;;12.85;80.08;99652.13;5118780;28;20054;-64
2023/10/21 04:20:29;;;;;;;18.23;11.35;;;;;;;12.86;79.92;99643.16;5118837;27;20031;-64
2023/10/21 04:22:55;;;;;;;23.20;11.43;;;;;;;12.86;80.77;99645.81;5119113;27;20059;-66
2023/10/21 04:25:21;;;;;;;16.92;10.60;;;;;;;12.80;79.73;99647.34;5119274;27;20031;-66
2023/10/21 04:27:47;;;;;;;22.52;12.25;;;;;;;12.72;81.07;99648.25;5110388;27;20259;-66
2023/10/21 04:30:12;;;;;;;20.35;11.70;;;;;;;12.77;82.34;99651.19;5118030;27;20047;-66
2023/10/21 04:32:37;;;;;;;17.92;10.95;;;;;;;12.75;83.51;99660.34;5118665;27;20136;-65
2023/10/21 04:35:06;;;;;;;16.75;11.30;;;;;;;12.67;86.58;99652.44;5120150;27;20039;-64
2023/10/21 04:37:32;;;;;;;24.00;13.55;;;;;;;12.63;87.81;99667.06;5119426;27;20039;-63
2023/10/21 04:39:57;;;;;;;18.38;11.90;;;;;;;12.59;88.96;99658.63;5117540;27;20240;-63
2023/10/21 04:42:26;;;;;;;20.88;11.35;;;;;;;12.63;89.58;99667.06;5118193;27;20112;-63
2023/10/21 04:44:52;;;;;;;23.50;12.95;;;;;;;12.67;88.61;99666.53;5117781;28;20408;-65
2023/10/21 04:47:18;;;;;;;24.15;12.18;;;;;;;12.66;88.79;99662.22;5117744;27;20341;-66
2023/10/21 04:49:43;;;;;;;18.92;12.32;;;;;;;12.70;88.25;99673.34;5118514;27;20034;-66
2023/10/21 04:52:11;;;;;;;17.80;12.73;;;;;;;12.74;88.33;99677.28;5117829;28;20428;-66
2023/10/21 04:54:36;;;;;;;19.95;12.57;;;;;;;12.82;87.63;99687.84;5117476;28;20083;-63
2023/10/21 04:57:02;;;;;;;21.50;12.95;;;;;;;12.89;86.78;99686.13;5118224;28;20035;-64
2023/10/21 04:59:27;;;;;;;23.00;13.02;;;;;;;12.89;86.52;99694.09;5117892;28;20344;-63
2023/10/21 05:01:52;;;;;;;21.77;13.15;;;;;;;12.95;86.44;99690.75;5118688;27;20035;-64
2023/10/21 05:04:18;;;;;;;24.05;15.75;;;;;;;13.02;86.05;99697.00;5122275;27;20031;-64
2023/10/21 05:06:43;;;;;;;21.45;13.35;;;;;;;13.08;84.36;99700.78;5123541;27;20039;-66
2023/10/21 05:09:10;;;;;;;29.98;15.93;;;;;;;13.09;84.45;99694.44;5122759;27;20035;-66
2023/10/21 05:11:35;;;;;;;28.10;17.73;;;;;;;13.05;84.55;99709.94;5114925;27;20129;-66
2023/10/21 05:14:01;;;;;;;31.17;16.52;;;;;;;13.09;84.90;99694.44;5122513;27;20325;-63
2023/10/21 05:16:26;;;;;;;23.75;14.80;;;;;;;13.06;84.55;99705.44;5121356;27;20207;-64
2023/10/21 05:18:52;;;;;;;22.75;13.10;;;;;;;13.03;85.04;99708.44;5104390;27;20121;-64
2023/10/21 05:21:17;;;;;;;21.42;13.35;;;;;;;12.90;86.01;99709.06;5121236;27;20039;-64
2023/10/21 05:23:43;;;;;;;29.25;15.52;;;;;;;12.87;86.19;99717.38;5122926;27;20046;-65
2023/10/21 05:26:08;;;;;;;27.48;13.55;;;;;;;12.83;86.87;99704.63;5121324;27;20244;-64
2023/10/21 05:28:34;;;;;;;19.83;14.30;;;;;;;12.72;87.52;99727.94;5123257;27;20057;-65
2023/10/21 05:31:01;;;;;;;20.83;13.25;;;;;;;12.79;87.37;99714.78;5121464;27;20443;-65
2023/10/21 05:33:27;;;;;;;22.88;13.98;;;;;;;12.65;88.29;99724.34;5121557;27;20040;-65
2023/10/21 05:36:00;;;;;;;21.40;14.27;;;;;;;12.88;87.89;99721.69;5121477;27;20099;-64
2023/10/21 05:38:26;;;;;;;22.77;13.45;;;;;;;12.88;88.21;99731.50;5122203;27;20050;-65
2023/10/21 05:40:52;;;;;;;21.85;14.65;;;;;;;12.90;87.92;99725.00;5120909;27;20271;-64
2023/10/21 05:43:17;;;;;;;22.25;15.40;;;;;;;12.83;89.46;99747.97;5121275;27;20035;-64
2023/10/21 05:45:43;;;;;;;20.40;11.65;;;;;;;12.96;88.68;99728.78;5121364;27;20042;-64
2023/10/21 05:48:09;;;;;;;20.98;14.65;;;;;;;12.96;88.45;99748.22;5123032;27;20217;-64
2023/10/21 05:50:36;;;;;;;22.58;12.52;;;;;;;13.09;88.89;99744.97;5122585;27;20073;-65
2023/10/21 05:53:01;;;;;;;19.90;13.52;;;;;;;12.93;89.45;99731.78;5121282;27;20300;-64
2023/10/21 05:55:27;;;;;;;33.15;22.17;;;;;;;13.15;89.30;99741.59;5123084;27;20355;-65
2023/10/21 05:57:53;;;;;;;26.60;17.35;;;;;;;13.30;88.51;99757.59;5122900;27;20040;-65
2023/10/21 06:00:18;;;;;;;19.40;14.60;;;;;;;13.50;88.59;99750.78;5122253;27;20149;-65
2023/10/21 06:02:44;;;;;;;17.10;11.48;;;;;;;13.66;87.54;99749.81;5120754;27;20105;-64
2023/10/21 06:05:09;;;;;;;21.88;11.50;;;;;;;13.80;87.65;99745.53;5120917;27;20035;-65
2023/10/21 06:07:35;;;;;;;16.08;11.85;;;;;;;13.99;86.67;99743.13;5104562;28;20168;-65
2023/10/21 06:10:00;;;;;;;17.17;10.77;;;;;;;14.23;85.55;99752.69;5121353;27;20036;-65
2023/10/21 06:12:26;;;;;;;16.15;10.38;;;;;;;14.48;84.90;99753.22;5122092;27;20041;-65
2023/10/21 06:14:53;;;;;;;17.00;11.02;;;;;;;14.59;84.35;99755.44;5121027;27;20028;-65
2023/10/21 06:17:18;;;;;;;19.38;11.27;;;;;;;14.82;84.20;99757.09;5121508;27;20038;-65
2023/10/21 06:19:44;;;;;;;24.65;13.48;;;;;;;15.01;83.14;99761.81;5120552;27;20035;-65
2023/10/21 06:22:12;;;;;;;22.83;13.38;;;;;;;15.18;83.20;99767.72;5120918;27;20031;-65
2023/10/21 06:24:38;;;;;;;17.52;10.73;;;;;;;15.25;82.44;99756.09;5120636;27;20127;-66
2023/10/21 06:27:04;;;;;;;20.10;11.20;;;;;;;15.41;82.13;99762.19;5121730;27;20047;-65
2023/10/21 06:29:30;;;;;;;15.07;10.57;;;;;;;15.59;81.51;99760.72;5119766;27;20336;-65
2023/10/21 06:31:55;;;;;;;14.80;11.95;;;;;;;15.73;81.44;99760.84;5121212;27;20065;-65
2023/10/21 06:34:21;;;;;;;19.98;11.65;;;;;;;15.90;80.54;99768.34;5121169;27;20028;-65
2023/10/21 06:36:46;;;;;;;17.52;10.63;;;;;;;16.03;79.94;99758.75;5119537;27;20076;-65
2023/10/21 06:39:12;;;;;;;16.08;12.43;;;;;;;16.01;79.16;99750.13;5120921;27;20035;-64
2023/10/21 06:41:38;;;;;;;14.93;10.18;;;;;;;16.19;79.47;99766.47;5119259;27;20342;-64
2023/10/21 06:44:03;;;;;;;20.80;11.23;;;;;;;16.13;78.98;99770.75;5119923;27;20303;-64
2023/10/21 06:46:30;;;;;;;16.25;10.55;;;;;;;16.26;79.22;99767.31;5121755;27;20047;-64
2023/10/21 06:48:55;;;;;;;23.23;11.27;;;;;;;16.45;77.80;99768.44;5119898;27;20094;-64
2023/10/21 06:51:20;;;;;;;14.40;9.88;;;;;;;16.50;78.30;99760.63;5119998;27;20368;-64
2023/10/21 06:53:46;;;;;;;16.90;9.93;;;;;;;16.64;78.25;99767.69;5119196;27;20039;-64
2023/10/21 06:56:12;;;;;;;16.48;11.38;;;;;;;16.75;78.25;99766.34;5120515;27;20062;-63
2023/10/21 06:58:43;;;;;;;16.58;11.13;;;;;;;16.83;78.09;99772.31;5120971;27;20039;-63
2023/10/21 07:01:09;;;;;;;15.13;10.25;;;;;;;16.93;78.81;99763.91;5115767;27;20059;-64
2023/10/21 07:03:35;;;;;;;13.77;9.40;;;;;;;16.95;79.13;99769.88;5120600;27;20329;-64
2023/10/21 07:06:01;;;;;;;15.05;10.80;;;;;;;17.11;79.28;99771.34;5119944;27;20040;-64
2023/10/21 07:08:26;;;;;;;20.63;10.75;;;;;;;17.25;79.62;99778.38;5119427;27;20035;-64
2023/10/21 07:10:53;;;;;;;15.30;10.45;;;;;;;17.39;79.43;99780.03;5119200;27;20057;-64
2023/10/21 07:13:19;;;;;;;15.60;9.88;;;;;;;17.59;79.51;99790.72;5120138;27;20110;-64
2023/10/21 07:15:44;;;;;;;15.27;10.30;;;;;;;17.72;79.71;99780.06;5118942;27;20031;-64
2023/10/21 07:18:10;;;;;;;15.93;10.50;;;;;;;17.75;79.49;99782.34;5118953;27;20436;-64
2023/10/21 07:20:36;;;;;;;15.95;10.00;;;;;;;17.89;79.29;99775.09;5120085;27;20260;-63
2023/10/21 07:23:02;;;;;;;16.23;10.88;;;;;;;18.01;79.64;99777.97;5119034;27;20039;-64
2023/10/21 07:25:28;;;;;;;19.10;10.57;;;;;;;18.17;79.83;99780.19;5118327;27;20051;-64
2023/10/21 07:27:54;;;;;;;14.93;10.50;;;;;;;18.31;79.49;99776.44;5119148;27;20035;-64
2023/10/21 07:30:23;;;;;;;19.30;10.20;;;;;;;18.37;78.43;99772.09;5119676;27;20042;-64
2023/10/21 07:32:48;;;;;;;19.55;12.02;;;;;;;18.29;80.29;99769.66;5119861;27;20040;-64
2023/10/21 07:35:14;;;;;;;17.10;12.23;;;;;;;18.38;81.87;99771.06;5118852;27;20089;-65
2023/10/21 07:37:40;;;;;;;23.27;13.20;;;;;;;18.37;83.23;99769.41;5120312;27;20039;-64
2023/10/21 07:40:07;;;;;;;19.05;12.23;;;;;;;18.39;83.11;99767.34;5118734;27;20035;-64
2023/10/21 07:42:32;;;;;;;18.65;12.48;;;;;;;18.50;82.44;99764.00;5119328;27;20245;-64
2023/10/21 07:44:58;;;;;;;19.83;13.15;;;;;;;18.67;83.16;99761.69;5119388;27;20031;-64
2023/10/21 07:47:23;;;;;;;19.08;12.27;;;;;;;18.79;82.29;99758.13;5118787;27;20253;-64
2023/10/21 07:49:51;;;;;;;14.82;11.55;;;;;;;18.90;81.91;99763.88;5118363;27;20040;-64
2023/10/21 07:52:16;;;;;;;19.38;13.20;;;;;;;19.01;81.32;99757.81;5119489;27;20058;-64
2023/10/21 07:54:42;;;;;;;20.77;12.60;;;;;;;18.96;81.18;99761.13;5118034;27;20356;-64
2023/10/21 07:57:08;;;;;;;17.75;12.80;;;;;;;19.08;81.39;99761.25;5119434;27;20375;-64
2023/10/21 07:59:34;;;;;;;18.40;12.75;;;;;;;19.09;81.32;99760.22;5119681;27;20027;-65
2023/10/21 08:02:00;;;;;;;18.02;12.35;;;;;;;19.06;80.85;99764.16;5119256;27;20044;-64
2023/10/21 08:04:25;;;;;;;22.23;12.00;;;;;;;18.81;81.58;99766.78;5119617;27;20031;-64
2023/10/21 08:06:51;;;;;;;19.27;12.40;;;;;;;18.67;82.34;99756.31;5120471;27;20371;-64
2023/10/21 08:09:18;;;;;;;17.95;12.60;;;;;;;18.55;84.05;99772.22;5118510;27;20031;-65
2023/10/21 08:11:44;;;;;;;24.83;13.80;;;;;;;18.55;83.90;99764.19;5118635;27;20043;-65
2023/10/21 08:14:12;;;;;;;17.42;12.20;;;;;;;18.65;83.96;99750.34;5120206;27;20037;-65
2023/10/21 08:16:38;;;;;;;19.33;13.02;;;;;;;18.65;83.61;99761.91;5118463;27;20337;-64
2023/10/21 08:19:05;;;;;;;20.55;12.68;;;;;;;18.81;82.89;99763.28;5118468;27;20035;-64
2023/10/21 08:21:31;;;;;;;18.45;12.13;;;;;;;18.95;82.62;99758.66;5134206;27;20036;-65
2023/10/21 08:23:57;;;;;;;16.85;11.80;;;;;;;18.93;82.34;99758.88;5120178;27;20191;-65
2023/10/21 08:26:24;;;;;;;20.15;12.45;;;;;;;19.08;82.34;99747.84;5119675;27;20042;-64
2023/10/21 08:28:49;;;;;;;17.33;12.35;;;;;;;19.17;82.13;99738.50;5119336;27;20069;-64
2023/10/21 08:31:15;;;;;;;20.75;12.68;;;;;;;19.33;80.68;99754.06;5118627;28;20091;-65
2023/10/21 08:33:40;;;;;;;16.55;11.57;;;;;;;19.42;81.67;99744.69;5119190;27;20089;-65
2023/10/21 08:36:21;;;;;;;18.70;12.50;;;;;;;19.57;81.11;99746.25;5119213;27;20035;-65
2023/10/21 08:38:47;;;;;;;18.42;12.63;;;;;;;19.60;80.60;99741.25;5119124;27;20330;-64
2023/10/21 08:41:12;;;;;;;18.50;11.88;;;;;;;19.61;79.17;99753.66;5119472;28;20044;-64
2023/10/21 08:43:41;;;;;;;21.48;12.25;;;;;;;19.65;78.19;99751.34;5118737;28;20031;-65
2023/10/21 08:46:09;;;;;;;14.85;11.20;;;;;;;19.66;78.93;99740.38;5117750;27;20094;-64
2023/10/21 08:48:35;;;;;;;15.45;12.32;;;;;;;19.65;78.64;99744.09;5117766;28;20073;-64
2023/10/21 08:51:02;;;;;;;20.52;13.93;;;;;;;19.68;80.25;99742.84;5119536;28;20088;-65
2023/10/21 08:53:31;;;;;;;18.40;11.88;;;;;;;19.82;80.92;99741.69;5119337;28;20039;-65
2023/10/21 08:55:57;;;;;;;18.65;12.63;;;;;;;19.91;79.82;99737.69;5117867;27;20043;-64
2023/10/21 08:58:28;;;;;;;19.38;12.70;;;;;;;19.96;78.64;99732.47;5118365;28;20118;-65
2023/10/21 09:00:54;;;;;;;19.02;12.60;;;;;;;19.99;79.61;99740.06;5118835;28;20197;-64
2023/10/21 09:03:19;;;;;;;15.63;11.15;;;;;;;19.94;77.78;99745.28;5119507;28;20058;-65
2023/10/21 09:06:10;;;;;;;18.15;10.98;;;;;;;19.90;78.14;99730.66;5118435;28;20032;-65
2023/10/21 09:08:37;;;;;;;17.00;11.50;;;;;;;19.93;78.54;99734.78;5118508;28;20047;-64
2023/10/21 09:11:08;;;;;;;18.67;11.93;;;;;;;19.96;78.15;99734.31;5117913;28;20113;-64
2023/10/21 09:13:35;;;;;;;16.95;11.52;;;;;;;19.91;78.24;99734.16;5116772;28;20310;-65
2023/10/21 09:16:17;;;;;;;14.05;11.48;;;;;;;19.90;78.48;99716.41;5118650;28;20237;-65
2023/10/21 09:19:10;;;;;;;12.25;10.32;;;;;;;20.00;77.79;99714.03;5116635;28;20051;-65
2023/10/21 09:21:41;;;;;;;15.60;11.48;;;;;;;20.03;76.97;99716.25;5118529;28;20035;-64
2023/10/21 09:24:12;;;;;;;17.85;11.32;;;;;;;20.08;76.97;99719.09;5117712;28;20055;-64
2023/10/21 09:26:39;;;;;;;19.20;10.93;;;;;;;20.13;77.48;99713.88;5118990;28;20079;-65
2023/10/21 09:29:12;;;;;;;14.55;9.70;;;;;;;20.18;77.11;99711.31;5118805;28;20032;-65
2023/10/21 09:31:48;;;;;;;14.20;10.85;;;;;;;20.26;76.96;99708.31;5118361;28;20052;-64
2023/10/21 09:34:32;;;;;;;14.48;10.45;;;;;;;20.24;75.93;99704.22;5118381;28;20062;-64
2023/10/21 09:37:05;;;;;;;14.38;9.68;;;;;;;20.35;75.29;99692.72;5119424;28;20036;-64
2023/10/21 09:39:37;;;;;;;13.13;8.57;;;;;;;20.43;74.02;99695.13;5117175;28;20047;-65
2023/10/21 09:42:05;;;;;;;15.05;9.38;;;;;;;20.45;74.40;99689.50;5100489;28;20766;-64
2023/10/21 09:44:31;;;;;;;14.57;9.90;;;;;;;20.55;74.28;99674.47;5117614;28;20063;-64
2023/10/21 09:46:58;;;;;;;13.02;10.73;;;;;;;20.59;74.54;99682.91;5118813;28;20023;-65
2023/10/21 09:49:25;;;;;;;15.13;10.65;;;;;;;20.60;74.79;99685.34;5120906;27;20358;-65
2023/10/21 09:52:00;;;;;;;18.30;10.35;;;;;;;20.66;74.61;99667.47;5121872;27;20092;-65
2023/10/21 09:55:07;;;;;;;15.95;10.05;;;;;;;20.73;73.71;99670.88;5121855;27;20050;-64
2023/10/21 09:57:36;;;;;;;14.90;8.85;;;;;;;20.83;73.27;99670.38;5118142;27;20081;-64
2023/10/21 10:00:04;;;;;;;14.23;8.80;;;;;;;20.97;72.17;99669.09;5120720;27;20321;-65
2023/10/21 10:02:30;;;;;;;14.30;9.98;;;;;;;21.12;70.72;99661.41;5121819;27;20344;-64
2023/10/21 10:04:58;;;;;;;14.57;9.63;;;;;;;21.18;70.94;99660.47;5121606;27;20075;-64
2023/10/21 10:07:24;;;;;;;13.85;8.70;;;;;;;21.14;70.61;99656.59;5121374;27;20459;-65
2023/10/21 10:09:51;;;;;;;19.73;9.30;;;;;;;21.32;69.61;99655.72;5120610;27;20069;-65
2023/10/21 10:12:46;;;;;;;11.50;7.93;;;;;;;21.33;69.58;99643.88;5120297;27;20074;-65
2023/10/21 10:15:48;;;;;;;13.52;8.52;;;;;;;21.56;69.19;99649.25;5121522;27;20019;-64
2023/10/21 10:18:19;;;;;;;12.23;7.90;;;;;;;21.57;69.47;99656.28;5112552;27;20097;-65
2023/10/21 10:20:48;;;;;;;10.80;7.78;;;;;;;21.61;68.43;99643.16;5121736;27;20337;-65
2023/10/21 10:23:13;;;;;;;11.15;6.72;;;;;;;21.74;65.88;99640.22;5120080;27;20036;-64
2023/10/21 10:25:42;;;;;;;9.25;6.28;;;;;;;21.86;65.10;99632.13;5121729;27;20305;-64
2023/10/21 10:28:14;;;;;;;11.02;6.80;;;;;;;22.03;63.65;99622.25;5121650;27;20042;-65
2023/10/21 10:30:44;;;;;;;8.13;7.20;;;;;;;22.11;64.22;99619.19;5121250;27;20043;-65
2023/10/21 10:33:12;;;;;;;11.43;6.03;;;;;;;22.16;62.86;99626.56;5120482;27;20338;-64
2023/10/21 10:35:51;;;;;;;10.35;6.97;;;;;;;22.26;63.14;99615.97;5122220;27;20081;-65
2023/10/21 10:38:40;;;;;;;9.38;6.95;;;;;;;22.24;62.97;99605.41;5120814;27;20043;-64
2023/10/21 10:41:18;;;;;;;10.85;6.45;;;;;;;22.19;64.29;99607.19;5109290;27;20051;-65
2023/10/21 10:43:54;;;;;;;11.05;7.70;;;;;;;22.32;63.30;99603.38;5116914;27;20068;-64
2023/10/21 10:46:21;;;;;;;11.73;7.78;;;;;;;22.32;63.14;99598.81;5120060;27;20047;-65
2023/10/21 10:48:48;;;;;;;10.85;7.68;;;;;;;22.36;64.22;99596.44;5120950;27;20337;-65
2023/10/21 10:51:17;;;;;;;12.02;7.82;;;;;;;22.51;63.32;99586.75;5120348;27;20356;-64
2023/10/21 10:53:48;;;;;;;11.52;6.22;;;;;;;22.54;63.76;99585.44;5121098;27;20031;-64
2023/10/21 10:56:18;;;;;;;8.68;7.15;;;;;;;22.66;62.31;99596.16;5120443;27;20067;-65
2023/10/21 10:58:46;;;;;;;8.20;6.45;;;;;;;22.74;62.84;99591.19;5121185;27;20051;-64
2023/10/21 11:01:25;;;;;;;11.00;6.50;;;;;;;22.84;62.45;99588.66;5118868;27;20035;-65
2023/10/21 11:04:01;;;;;;;9.02;5.63;;;;;;;23.01;59.96;99588.69;5120250;27;20030;-65
2023/10/21 11:06:39;;;;;;;12.43;5.90;;;;;;;23.14;58.47;99584.81;5120336;27;20047;-65
2023/10/21 11:09:06;;;;;;;11.32;7.03;;;;;;;23.21;59.22;99577.38;5122161;27;20237;-65
2023/10/21 11:11:48;;;;;;;13.27;6.70;;;;;;;23.04;59.81;99580.09;5120103;27;20053;-65
2023/10/21 11:14:18;;;;;;;8.65;4.85;;;;;;;23.20;53.55;99570.34;5121167;27;20031;-65
2023/10/21 11:16:49;;;;;;;14.52;5.95;;;;;;;23.44;55.41;99569.03;5120590;27;20032;-64
2023/10/21 11:19:15;;;;;;;10.10;5.95;;;;;;;23.45;54.90;99567.16;5119458;27;20059;-64
2023/10/21 11:21:42;;;;;;;8.55;6.15;;;;;;;23.41;55.76;99561.44;5119290;27;20360;-64